Barrow, AK

4:58 AM AKST on February 28, 2015 (GMT -0900)
Wiley Post-Will Rogers Memorial | Change Station
CLOSE
Current Station
Airport
Location: Barrow,
Elevation: 43 ft
Nearby Weather Stations
Active Advisory: Winter Weather Advisory Active Notice: Record Report

Elev 43 ft 71.28 °N, 156.79 °W | Updated 5 minutes ago

Overcast
Overcast
18 °F
Feels Like 5 °F
N
12
Wind Variable Wind from SSW

Today
High -- | Low -- °F
--% Chance of Precip.
Yesterday
High -- | Low -- °F
Precip. -- in
9:04 AM 6:16 PM
Waxing Gibbous, 77% visible
Pressure 29.73 in
Visibility 10.0 miles
Clouds Few 4700 ft
Mostly Cloudy 6000 ft
Overcast 7500 ft
Windchill 5 °F
Dew Point 16 °F
Humidity 92%
Rainfall 0.00 in
Snow Depth Not available.
UV 0 out of 12
Pollen Not available.
Air Quality Not available.
Flu Activity Not available.
METAR PABR 281353Z 20010KT 10SM FEW047 BKN060 OVC075 M08/M09 A2973 RMK AO2 SNB31E46 SLP068 P0000 T10781089

More Conditions Fewer Conditions

Pressure 29.73 in
Visibility 10.0 miles
Clouds Few 4700 ft
Mostly Cloudy 6000 ft
Overcast 7500 ft
Windchill 5 °F
Dew Point 16 °F
Humidity 92%
Rainfall 0.00 in
Snow Depth Not available.
UV 0 out of 12
Pollen Not available.
Air Quality Not available.
Flu Activity Not available.
METAR PABR 281353Z 20010KT 10SM FEW047 BKN060 OVC075 M08/M09 A2973 RMK AO2 SNB31E46 SLP068 P0000 T10781089

More Conditions Fewer Conditions

10-Day Weather Forecast

Almanac

Astronomy

Feb. 28, 2015 Rise Set
Actual Time
Civil Twilight
Nautical Twilight
Astronomical Twilight
Moon
Length of Visible Light
Length of Day
Tomorrow will be .
, % of the Moon is Illuminated

Today's Extremes

State Highs State Lows

Community

WunderPhotos

Upload Photos

1,801,014 photos uploaded!

WunderBlogs® & News

Nearby

Air Quality

  Air Quality AQ Index Pollutant
Not available.

Snow Depth

Station Depth Elevation

Earthquake Activity

City Distance Mag. Time & Date
Minimum magnitude displayed is 2.5.

Coastal Water Temperatures

Place Temperature

Nearby Weather Stations

Winter Weather Advisory
Statement as of 4:22 AM AKST on February 28, 2015

... Winter Weather Advisory remains in effect from 9 am this
morning to 6 am akst Sunday...

A Winter Weather Advisory for blowing snow... winds remains in
effect from 9 am this morning to 6 am akst Sunday.

* Blowing snow and snow... reducing visibility to one half mile
or less at times.

* Winds... becoming northwest and increasing to 20 to 35 mph
gusting to 50 mph.

* Timing... winds will increase and conditions will deteriorate
this morning. Conditions will improve early Sunday as winds
diminish.

* Impacts... visibility will be greatly reduced and snow will
accumulate into drifts. Whiteout conditions may occur. Travel
and outdoor activities will be difficult.

Precautionary/preparedness actions...

A Winter Weather Advisory means that one or more winter weather
hazards are expected to cause travel difficulties.